Terminal Aerodrome Forecast
Issued by NWS

Home | Current Version | Previous Version | Text Only | Print | Product List | Glossary Off
Versions: 1 2 3 4 5 6 7 8 9 10 11 12 13 14 15 16 17

000
FTUS45 KGGW 211124
TAFGDV
TAF
KGDV 211124Z 2112/2212 20007KT P6SM SCT200
     FM211600 22008KT P6SM BKN110
     FM212000 24012KT P6SM BKN070
     FM220300 32006KT P6SM BKN070
     FM220500 35006KT P6SM VCSH BKN060
     FM220900 35004KT P6SM VCSH BKN010=

USA.gov is the U.S. government's official web portal to all federal, state and local government web resources and services.